createdAt,value
2022-09-23T00:01:09.995Z,5.07
2022-09-23T00:03:39.074Z,5.40
2022-09-23T00:06:10.910Z,4.37
2022-09-23T00:08:38.777Z,6.15
2022-09-23T00:11:10.668Z,6.80
2022-09-23T00:13:38.569Z,5.22
2022-09-23T00:16:08.057Z,5.55
2022-09-23T00:18:35.466Z,5.72
2022-09-23T00:21:06.640Z,5.07
2022-09-23T00:23:34.355Z,6.32
2022-09-23T00:26:02.679Z,5.57
2022-09-23T00:28:30.615Z,5.78
2022-09-23T00:31:03.070Z,5.93
2022-09-23T00:33:30.462Z,5.22
2022-09-23T00:36:05.462Z,5.40
2022-09-23T00:38:34.012Z,5.62
2022-09-23T00:41:17.007Z,5.43
2022-09-23T00:43:52.867Z,5.97
2022-09-23T00:46:37.177Z,6.03
2022-09-23T00:49:14.083Z,5.55
2022-09-23T00:51:44.646Z,4.85
2022-09-23T00:54:11.990Z,7.70
2022-09-23T00:56:39.353Z,7.80
2022-09-23T00:59:07.606Z,11.05
2022-09-23T01:01:35.500Z,8.60
2022-09-23T01:04:02.935Z,13.30
2022-09-23T01:06:30.908Z,13.30
2022-09-23T01:08:58.277Z,11.95
2022-09-23T01:11:50.148Z,9.00
2022-09-23T01:14:38.994Z,10.02
2022-09-23T01:17:08.959Z,8.98
2022-09-23T01:19:36.396Z,10.65
2022-09-23T01:22:19.514Z,10.15
2022-09-23T01:25:09.101Z,10.23
2022-09-23T01:27:43.261Z,8.70
2022-09-23T01:30:11.107Z,7.53
2022-09-23T01:32:54.828Z,7.12
2022-09-23T01:35:34.293Z,7.03
2022-09-23T01:38:16.241Z,7.90
2022-09-23T01:41:05.019Z,8.07
2022-09-23T01:43:53.690Z,7.82
2022-09-23T01:46:25.490Z,8.77
2022-09-23T01:49:12.897Z,8.57
2022-09-23T01:51:46.778Z,6.62
2022-09-23T01:54:17.718Z,7.35
2022-09-23T01:56:53.800Z,7.32
2022-09-23T01:59:40.234Z,7.00
2022-09-23T02:02:16.621Z,7.47
2022-09-23T02:04:45.586Z,7.35
2022-09-23T02:07:32.216Z,6.97
2022-09-23T02:10:14.126Z,7.65
2022-09-23T02:12:42.168Z,6.12
2022-09-23T02:15:11.850Z,6.50
2022-09-23T02:17:42.562Z,6.75
2022-09-23T02:20:10.537Z,6.30
2022-09-23T02:22:44.426Z,5.75
2022-09-23T02:25:12.586Z,5.47
2022-09-23T02:27:44.734Z,5.68
2022-09-23T02:30:17.770Z,5.72
2022-09-23T02:32:58.385Z,5.95
2022-09-23T02:35:37.127Z,5.45
2022-09-23T02:38:12.618Z,5.25
2022-09-23T02:40:54.780Z,5.80
2022-09-23T02:43:36.126Z,5.37
2022-09-23T02:46:04.069Z,5.53
2022-09-23T02:48:53.315Z,5.78
2022-09-23T02:51:21.002Z,4.85
2022-09-23T02:53:48.339Z,5.47
2022-09-23T02:56:20.978Z,5.25
2022-09-23T02:58:49.289Z,4.70
2022-09-23T03:01:41.259Z,5.55
2022-09-23T03:04:27.065Z,5.45
2022-09-23T03:07:22.055Z,5.97
2022-09-23T03:10:04.748Z,5.28
2022-09-23T03:12:52.879Z,5.45
2022-09-23T03:15:36.546Z,5.35
2022-09-23T03:18:15.878Z,6.20
2022-09-23T03:20:50.157Z,4.95
2022-09-23T03:23:23.566Z,5.30
2022-09-23T03:25:54.046Z,4.78
2022-09-23T03:28:22.147Z,4.93
2022-09-23T03:30:51.027Z,5.05
2022-09-23T03:33:19.509Z,5.53
2022-09-23T03:36:13.173Z,6.85
2022-09-23T03:38:43.154Z,5.12
2022-09-23T03:41:12.038Z,6.45
2022-09-23T03:43:39.430Z,6.10
2022-09-23T03:46:08.212Z,4.93
2022-09-23T03:48:35.585Z,6.78
2022-09-23T03:51:18.108Z,6.90
2022-09-23T03:53:45.743Z,6.40
2022-09-23T03:56:13.102Z,7.93
2022-09-23T03:58:40.502Z,6.47
2022-09-23T04:01:08.172Z,6.65
2022-09-23T04:03:35.802Z,6.60
2022-09-23T04:06:03.130Z,7.97
2022-09-23T04:08:30.531Z,7.95
2022-09-23T04:11:01.720Z,7.80
2022-09-23T04:13:29.445Z,6.53
2022-09-23T04:15:56.809Z,8.02
2022-09-23T04:18:24.523Z,7.68
2022-09-23T04:20:51.871Z,7.70
2022-09-23T04:23:19.219Z,7.43
2022-09-23T04:25:49.643Z,7.25
2022-09-23T04:28:16.980Z,7.28
2022-09-23T04:30:46.040Z,7.80
2022-09-23T04:33:13.728Z,6.00
2022-09-23T04:35:43.042Z,6.30
2022-09-23T04:38:13.431Z,6.37
2022-09-23T04:40:41.119Z,7.57
2022-09-23T04:43:13.363Z,7.40
2022-09-23T04:45:41.489Z,8.23
2022-09-23T04:48:10.270Z,8.13
2022-09-23T04:50:37.814Z,7.60
2022-09-23T04:53:05.537Z,7.37
2022-09-23T04:55:32.902Z,8.57
2022-09-23T04:58:00.386Z,11.12
2022-09-23T05:00:28.666Z,10.93
2022-09-23T05:02:56.136Z,10.23
2022-09-23T05:05:24.230Z,8.82
2022-09-23T05:07:51.852Z,8.82
2022-09-23T05:10:19.191Z,10.35
2022-09-23T05:12:46.545Z,14.48
2022-09-23T05:15:15.136Z,16.27
2022-09-23T05:17:43.100Z,13.93
2022-09-23T05:20:11.350Z,11.43
2022-09-23T05:22:38.973Z,12.70
2022-09-23T05:25:06.518Z,11.43
2022-09-23T05:27:33.864Z,10.95
2022-09-23T05:30:01.494Z,10.05
2022-09-23T05:32:28.826Z,11.50
2022-09-23T05:34:56.218Z,12.10
2022-09-23T05:37:25.327Z,12.05
2022-09-23T05:39:52.690Z,11.07
2022-09-23T05:42:20.975Z,11.20
2022-09-23T05:44:48.900Z,11.05
2022-09-23T05:47:16.306Z,10.30
2022-09-23T05:49:59.103Z,9.38
2022-09-23T05:52:27.982Z,9.27
2022-09-23T05:54:55.372Z,8.80
2022-09-23T05:57:22.748Z,8.45
2022-09-23T05:59:50.402Z,9.30
2022-09-23T06:02:17.836Z,9.85
2022-09-23T06:04:45.498Z,8.20
2022-09-23T06:07:12.879Z,7.60
2022-09-23T06:09:42.356Z,7.68
2022-09-23T06:12:09.995Z,7.20
2022-09-23T06:14:37.372Z,6.65
2022-09-23T06:17:05.586Z,7.32
2022-09-23T06:19:33.200Z,7.10
2022-09-23T06:22:00.580Z,7.35
2022-09-23T06:24:31.320Z,8.27
2022-09-23T06:26:59.059Z,6.70
2022-09-23T06:29:26.505Z,6.37
2022-09-23T06:31:53.901Z,6.18
2022-09-23T06:34:21.758Z,6.60
2022-09-23T06:36:49.338Z,5.82
2022-09-23T06:39:16.734Z,6.60
2022-09-23T06:41:45.114Z,6.30
2022-09-23T06:44:13.837Z,6.78
2022-09-23T06:46:41.360Z,6.45
2022-09-23T06:49:09.132Z,6.65
2022-09-23T06:51:36.709Z,5.90
2022-09-23T06:54:04.476Z,6.70
2022-09-23T06:56:36.304Z,7.53
2022-09-23T06:59:05.558Z,7.03
2022-09-23T07:01:34.470Z,6.37
2022-09-23T07:04:02.066Z,7.35
2022-09-23T07:06:29.403Z,7.10
2022-09-23T07:08:57.040Z,6.45
2022-09-23T07:11:24.391Z,6.12
2022-09-23T07:13:51.783Z,6.10
2022-09-23T07:16:19.717Z,5.75
2022-09-23T07:18:47.346Z,5.70
2022-09-23T07:21:18.457Z,5.25
2022-09-23T07:23:47.551Z,5.55
2022-09-23T07:26:15.193Z,4.78
2022-09-23T07:28:42.606Z,6.07
2022-09-23T07:31:12.785Z,5.65
2022-09-23T07:33:41.454Z,5.20
2022-09-23T07:36:13.505Z,4.37
2022-09-23T07:38:45.177Z,5.45
2022-09-23T07:41:17.759Z,5.75
2022-09-23T07:43:46.108Z,4.78
2022-09-23T07:46:16.408Z,4.87
2022-09-23T07:48:44.703Z,5.82
2022-09-23T07:51:36.328Z,5.30
2022-09-23T07:54:10.276Z,5.25
2022-09-23T07:56:38.323Z,5.07
2022-09-23T07:59:08.568Z,5.00
2022-09-23T08:01:41.281Z,4.78
2022-09-23T08:04:12.052Z,4.75
2022-09-23T08:06:43.876Z,4.75
2022-09-23T08:09:11.713Z,5.03
2022-09-23T08:11:42.483Z,4.37
2022-09-23T08:14:10.994Z,4.30
2022-09-23T08:16:39.826Z,4.50
2022-09-23T08:19:07.537Z,5.00
2022-09-23T08:21:34.953Z,4.07
2022-09-23T08:24:02.781Z,4.40
2022-09-23T08:26:30.932Z,4.65
2022-09-23T08:28:58.535Z,6.12
2022-09-23T08:31:27.562Z,5.72
2022-09-23T08:33:56.261Z,6.03
2022-09-23T08:36:24.171Z,6.43
2022-09-23T08:38:51.983Z,6.80
2022-09-23T08:41:37.947Z,6.37
2022-09-23T08:44:16.967Z,6.68
2022-09-23T08:46:48.028Z,6.78
2022-09-23T08:49:21.725Z,6.43
2022-09-23T08:51:49.309Z,6.62
2022-09-23T08:54:17.070Z,5.85
2022-09-23T08:56:45.309Z,7.75
2022-09-23T08:59:15.037Z,6.28
2022-09-23T09:02:45.837Z,6.37
2022-09-23T09:06:27.865Z,5.82
2022-09-23T09:09:27.189Z,5.75
2022-09-23T09:12:16.801Z,5.62
2022-09-23T09:14:57.010Z,5.70
2022-09-23T09:18:03.731Z,7.05
2022-09-23T09:20:41.500Z,6.97
2022-09-23T09:23:23.453Z,7.07
2022-09-23T09:26:01.598Z,6.97
2022-09-23T09:28:43.533Z,7.47
2022-09-23T09:31:42.594Z,8.30
2022-09-23T09:34:34.474Z,7.55
2022-09-23T09:37:18.237Z,5.22
2022-09-23T09:39:46.353Z,6.05
2022-09-23T09:42:23.594Z,6.07
2022-09-23T09:45:01.907Z,5.97
2022-09-23T09:48:00.962Z,6.40
2022-09-23T09:50:49.360Z,6.32
2022-09-23T09:53:21.852Z,6.03
2022-09-23T09:56:11.260Z,6.70
2022-09-23T09:58:54.021Z,6.87
2022-09-23T10:01:31.925Z,6.50
2022-09-23T10:04:18.640Z,6.45
2022-09-23T10:07:03.022Z,6.97
2022-09-23T10:09:33.808Z,6.03
2022-09-23T10:12:21.310Z,6.72
2022-09-23T10:14:51.420Z,6.20
2022-09-23T10:17:28.399Z,6.10
2022-09-23T10:20:01.005Z,5.20
2022-09-23T10:22:47.106Z,5.37
2022-09-23T10:25:20.290Z,5.32
2022-09-23T10:27:47.622Z,5.60
2022-09-23T10:30:15.044Z,6.40
2022-09-23T10:32:45.368Z,5.37
2022-09-23T10:35:23.822Z,4.78
2022-09-23T10:37:55.531Z,4.80
2022-09-23T10:40:56.033Z,5.05
2022-09-23T10:44:07.208Z,5.35
2022-09-23T10:46:41.668Z,5.25
2022-09-23T10:49:31.134Z,4.72
2022-09-23T10:52:22.680Z,4.53
2022-09-23T10:55:17.666Z,4.70
2022-09-23T10:57:44.922Z,4.18
2022-09-23T11:00:27.687Z,4.07
2022-09-23T11:03:18.649Z,4.07
2022-09-23T11:05:58.266Z,4.60
2022-09-23T11:08:59.619Z,4.53
2022-09-23T11:11:46.331Z,4.07
2022-09-23T11:14:32.748Z,4.40
2022-09-23T11:17:24.783Z,4.15
2022-09-23T11:19:56.457Z,4.60
2022-09-23T11:22:45.734Z,3.75
2022-09-23T11:25:40.876Z,3.60
2022-09-23T11:28:42.487Z,3.90
2022-09-23T11:31:37.341Z,3.60
2022-09-23T11:34:30.218Z,4.00
2022-09-23T11:37:12.840Z,3.80
2022-09-23T11:40:03.584Z,5.57
2022-09-23T11:42:33.903Z,5.05
2022-09-23T11:45:13.061Z,4.32
2022-09-23T11:47:46.652Z,5.05
2022-09-23T11:50:47.036Z,6.50
2022-09-23T11:53:45.152Z,5.30
2022-09-23T11:56:33.319Z,6.10
2022-09-23T11:59:19.986Z,4.82
2022-09-23T12:01:55.308Z,5.20
2022-09-23T12:04:52.650Z,5.20
2022-09-23T12:07:25.672Z,5.40
2022-09-23T12:10:03.534Z,5.30
2022-09-23T12:12:52.147Z,5.12
2022-09-23T12:15:27.017Z,4.85
2022-09-23T12:18:04.695Z,4.55
2022-09-23T12:21:08.763Z,6.25
2022-09-23T12:23:53.996Z,4.87
2022-09-23T12:26:23.250Z,4.80
2022-09-23T12:28:52.010Z,5.37
2022-09-23T12:31:21.894Z,4.10
2022-09-23T12:33:53.655Z,3.67
2022-09-23T12:36:34.720Z,3.65
2022-09-23T12:39:06.331Z,5.00
2022-09-23T12:41:38.723Z,4.47
2022-09-23T12:44:15.403Z,3.87
2022-09-23T12:49:28.276Z,4.12
2022-09-23T12:52:10.754Z,3.55
2022-09-23T12:54:39.343Z,4.25
2022-09-23T12:57:32.198Z,4.00
2022-09-23T13:00:13.125Z,3.10
2022-09-23T13:02:46.966Z,2.55
2022-09-23T13:05:40.483Z,2.53
2022-09-23T13:08:18.604Z,4.22
2022-09-23T13:10:54.690Z,3.42
2022-09-23T13:13:29.663Z,4.35
2022-09-23T13:16:12.608Z,5.25
2022-09-23T13:19:04.800Z,5.70
2022-09-23T13:21:44.871Z,5.97
2022-09-23T13:24:28.923Z,5.93
2022-09-23T13:27:00.331Z,4.97
2022-09-23T13:29:38.110Z,5.00
2022-09-23T13:32:06.363Z,4.90
2022-09-23T13:34:34.545Z,5.25
2022-09-23T13:37:22.176Z,5.25
2022-09-23T13:39:50.997Z,5.78
2022-09-23T13:42:38.172Z,5.03
2022-09-23T13:45:06.658Z,5.03
2022-09-23T13:47:34.008Z,5.57
2022-09-23T13:50:02.131Z,5.40
2022-09-23T13:52:31.327Z,5.53
2022-09-23T13:54:58.720Z,5.20
2022-09-23T13:57:27.975Z,4.87
2022-09-23T14:00:21.152Z,4.62
2022-09-23T14:02:48.920Z,5.32
2022-09-23T14:05:27.192Z,5.32
2022-09-23T14:07:55.302Z,6.65
2022-09-23T14:10:28.732Z,6.22
2022-09-23T14:13:00.925Z,5.45
2022-09-23T14:15:32.717Z,5.72
2022-09-23T14:18:06.592Z,6.12
2022-09-23T14:20:50.440Z,2.20
2022-09-23T14:23:20.752Z,1.73
2022-09-23T14:25:49.251Z,1.80
2022-09-23T14:28:19.183Z,2.85
2022-09-23T14:30:51.357Z,2.03
2022-09-23T14:33:27.407Z,1.83
2022-09-23T14:36:07.245Z,2.17
2022-09-23T14:38:51.819Z,1.90
2022-09-23T14:41:23.751Z,2.30
2022-09-23T14:43:54.612Z,2.58
2022-09-23T14:46:23.076Z,2.20
2022-09-23T14:49:11.642Z,2.30
2022-09-23T14:51:49.357Z,1.87
2022-09-23T14:54:44.008Z,1.95
2022-09-23T14:57:38.558Z,2.60
2022-09-23T15:00:18.142Z,3.17
2022-09-23T15:02:57.774Z,3.70
2022-09-23T15:05:45.292Z,3.53
2022-09-23T15:08:15.786Z,2.67
2022-09-23T15:10:43.099Z,2.80
2022-09-23T15:13:22.247Z,3.00
2022-09-23T15:15:53.403Z,2.83
2022-09-23T15:18:25.604Z,2.58
2022-09-23T15:20:54.690Z,2.92
2022-09-23T15:23:50.666Z,3.53
2022-09-23T15:26:39.191Z,3.67
2022-09-23T15:29:09.773Z,3.17
2022-09-23T15:31:37.708Z,3.60
2022-09-23T15:34:10.140Z,2.80
2022-09-23T15:36:38.569Z,2.87
2022-09-23T15:39:07.067Z,3.20
2022-09-23T15:41:34.692Z,2.92
2022-09-23T15:44:11.463Z,2.90
2022-09-23T15:46:39.990Z,3.15
2022-09-23T15:49:15.213Z,2.87
2022-09-23T15:51:43.063Z,3.97
2022-09-23T15:54:13.822Z,3.15
2022-09-23T15:56:41.167Z,5.10
2022-09-23T15:59:08.573Z,4.03
2022-09-23T16:01:36.444Z,3.67
2022-09-23T16:04:04.527Z,4.82
2022-09-23T16:06:32.098Z,4.10
2022-09-23T16:08:59.430Z,3.55
2022-09-23T16:11:33.437Z,4.22
2022-09-23T16:14:00.831Z,4.40
2022-09-23T16:16:28.715Z,4.90
2022-09-23T16:18:56.216Z,3.75
2022-09-23T16:21:24.741Z,3.78
2022-09-23T16:23:53.418Z,4.75
2022-09-23T16:26:22.894Z,4.15
2022-09-23T16:28:51.169Z,6.12
2022-09-23T16:31:19.304Z,13.45
2022-09-23T16:33:47.177Z,10.48
2022-09-23T16:36:28.888Z,14.32
2022-09-23T16:38:56.721Z,19.67
2022-09-23T16:41:24.767Z,15.75
2022-09-23T16:43:52.918Z,13.70
2022-09-23T16:46:20.793Z,12.25
2022-09-23T16:48:52.357Z,9.20
2022-09-23T16:51:21.228Z,10.63
2022-09-23T16:53:49.344Z,9.35
2022-09-23T16:56:17.535Z,7.87
2022-09-23T16:58:44.862Z,8.45
2022-09-23T17:01:39.362Z,7.80
2022-09-23T17:04:07.447Z,6.57
2022-09-23T17:06:35.509Z,9.30
2022-09-23T17:09:03.023Z,9.88
2022-09-23T17:11:33.964Z,13.27
2022-09-23T17:14:01.879Z,16.60
2022-09-23T17:16:30.823Z,18.02
2022-09-23T17:18:58.229Z,10.05
2022-09-23T17:21:26.870Z,10.93
2022-09-23T17:23:55.099Z,10.80
2022-09-23T17:26:23.889Z,9.95
2022-09-23T17:28:51.954Z,8.52
2022-09-23T17:31:19.512Z,9.55
2022-09-23T17:33:46.918Z,9.32
2022-09-23T17:36:14.730Z,9.63
2022-09-23T17:38:45.986Z,9.45
2022-09-23T17:41:13.728Z,9.88
2022-09-23T17:43:41.491Z,8.98
2022-09-23T17:46:18.187Z,9.63
2022-09-23T17:48:45.925Z,8.52
2022-09-23T17:51:15.050Z,9.38
2022-09-23T17:53:45.012Z,15.07
2022-09-23T17:56:20.133Z,14.05
2022-09-23T17:58:48.410Z,14.48
2022-09-23T18:01:18.378Z,27.25
2022-09-23T18:03:46.386Z,26.50
2022-09-23T18:06:13.626Z,18.83
2022-09-23T18:08:41.868Z,15.73
2022-09-23T18:11:22.754Z,15.90
2022-09-23T18:13:51.032Z,13.45
2022-09-23T18:16:19.087Z,12.85
2022-09-23T18:18:53.461Z,12.60
2022-09-23T18:21:21.860Z,13.25
2022-09-23T18:23:49.308Z,13.93
2022-09-23T18:26:17.891Z,12.13
2022-09-23T18:28:45.862Z,11.63
2022-09-23T18:31:18.022Z,11.75
2022-09-23T18:33:52.181Z,11.93
2022-09-23T18:36:23.873Z,11.48
2022-09-23T18:38:52.189Z,11.25
2022-09-23T18:41:19.718Z,9.05
2022-09-23T18:43:48.693Z,9.68
2022-09-23T18:46:18.423Z,9.75
2022-09-23T18:49:04.660Z,10.65
2022-09-23T18:54:00.753Z,8.63
2022-09-23T18:56:39.610Z,7.90
2022-09-23T18:59:14.471Z,8.18
2022-09-23T19:01:42.085Z,10.40
2022-09-23T19:04:09.959Z,8.98
2022-09-23T19:06:37.437Z,8.90
2022-09-23T19:09:05.826Z,10.95
2022-09-23T19:11:36.186Z,11.23
2022-09-23T19:14:08.162Z,8.27
2022-09-23T19:16:37.523Z,16.95
2022-09-23T19:19:05.257Z,12.88
2022-09-23T19:21:33.445Z,21.12
2022-09-23T19:24:03.650Z,16.02
2022-09-23T19:26:38.243Z,18.02
2022-09-23T19:29:08.404Z,21.42
2022-09-23T19:31:39.139Z,15.32
2022-09-23T19:34:11.474Z,13.43
2022-09-23T19:36:39.921Z,9.60
2022-09-23T19:39:21.107Z,12.88
2022-09-23T19:41:49.053Z,9.20
2022-09-23T19:44:17.891Z,10.77
2022-09-23T19:46:46.232Z,8.57
2022-09-23T19:49:13.876Z,7.28
2022-09-23T19:51:41.520Z,7.35
2022-09-23T19:54:09.962Z,7.72
2022-09-23T19:56:38.582Z,5.37
2022-09-23T19:59:09.177Z,5.47
2022-09-23T20:01:36.650Z,5.07
2022-09-23T20:04:04.402Z,6.10
2022-09-23T20:06:33.933Z,5.65
2022-09-23T20:09:01.540Z,5.93
2022-09-23T20:11:29.379Z,6.80
2022-09-23T20:14:02.179Z,6.03
2022-09-23T20:16:32.268Z,5.28
2022-09-23T20:19:00.305Z,5.22
2022-09-23T20:21:28.405Z,5.12
2022-09-23T20:23:56.429Z,5.12
2022-09-23T20:26:42.627Z,5.70
2022-09-23T20:29:11.025Z,4.87
2022-09-23T20:31:40.422Z,5.05
2022-09-23T20:34:08.205Z,4.68
2022-09-23T20:36:36.247Z,5.05
2022-09-23T20:39:05.749Z,5.35
2022-09-23T20:41:36.817Z,5.28
2022-09-23T20:44:06.359Z,6.70
2022-09-23T20:46:34.331Z,5.70
2022-09-23T20:49:02.214Z,5.65
2022-09-23T20:51:32.971Z,5.22
2022-09-23T20:54:00.546Z,4.68
2022-09-23T20:56:28.544Z,5.25
2022-09-23T20:59:00.174Z,5.55
2022-09-23T21:01:27.742Z,4.32
2022-09-23T21:03:55.993Z,4.30
2022-09-23T21:06:25.139Z,4.50
2022-09-23T21:08:53.394Z,3.92
2022-09-23T21:11:20.872Z,4.37
2022-09-23T21:13:49.723Z,5.45
2022-09-23T21:16:18.341Z,4.47
2022-09-23T21:18:45.941Z,4.80
2022-09-23T21:21:14.380Z,4.60
2022-09-23T21:23:41.964Z,4.53
2022-09-23T21:26:13.742Z,5.07
2022-09-23T21:28:48.481Z,4.30
2022-09-23T21:31:23.083Z,4.30
2022-09-23T21:34:02.133Z,5.07
2022-09-23T21:36:39.416Z,6.72
2022-09-23T21:39:07.842Z,6.50
2022-09-23T21:41:35.242Z,6.78
2022-09-23T21:44:04.642Z,5.35
2022-09-23T21:46:35.595Z,5.68
2022-09-23T21:49:03.987Z,5.82
2022-09-23T21:51:38.768Z,5.32
2022-09-23T21:54:16.040Z,6.60
2022-09-23T21:56:43.891Z,6.30
2022-09-23T21:59:11.315Z,7.43
2022-09-23T22:01:40.960Z,8.35
2022-09-23T22:04:16.923Z,7.50
2022-09-23T22:06:44.577Z,10.85
2022-09-23T22:09:14.131Z,9.57
2022-09-23T22:12:00.340Z,7.07
2022-09-23T22:14:28.101Z,7.22
2022-09-23T22:16:57.329Z,6.75
2022-09-23T22:19:35.318Z,6.47
2022-09-23T22:22:08.257Z,5.62
2022-09-23T22:24:35.601Z,6.85
2022-09-23T22:27:03.232Z,6.00
2022-09-23T22:29:49.150Z,5.28
2022-09-23T22:32:35.543Z,5.68
2022-09-23T22:35:03.182Z,5.43
2022-09-23T22:37:35.036Z,4.25
2022-09-23T22:40:06.434Z,4.20
2022-09-23T22:42:34.638Z,4.47
2022-09-23T22:45:05.150Z,4.43
2022-09-23T22:47:37.639Z,4.45
2022-09-23T22:50:06.529Z,4.43
2022-09-23T22:52:34.211Z,4.53
2022-09-23T22:55:01.607Z,4.07
2022-09-23T22:57:29.225Z,4.30
2022-09-23T22:59:56.555Z,4.50
2022-09-23T23:02:24.015Z,4.30
2022-09-23T23:04:51.636Z,4.37
2022-09-23T23:07:22.925Z,3.72
2022-09-23T23:09:50.495Z,3.85
2022-09-23T23:12:20.157Z,4.40
2022-09-23T23:14:48.278Z,4.07
2022-09-23T23:17:15.746Z,3.40
2022-09-23T23:19:43.429Z,3.58
2022-09-23T23:22:10.731Z,4.20
2022-09-23T23:24:38.085Z,4.35
2022-09-23T23:27:05.667Z,3.95
2022-09-23T23:29:33.138Z,4.10
2022-09-23T23:32:00.626Z,3.78
2022-09-23T23:34:28.249Z,3.50
2022-09-23T23:36:55.828Z,3.12
2022-09-23T23:39:23.838Z,3.50
2022-09-23T23:41:53.284Z,3.25
2022-09-23T23:44:20.677Z,3.28
2022-09-23T23:46:49.107Z,3.45
2022-09-23T23:49:16.859Z,3.40
2022-09-23T23:51:44.481Z,3.20
2022-09-23T23:54:12.292Z,3.55
2022-09-23T23:56:39.879Z,3.37
2022-09-23T23:59:07.180Z,2.97
